createdAt,value
2017-06-22T00:00:24.873Z,80.70
2017-06-22T00:02:52.331Z,80.70
2017-06-22T00:05:19.792Z,81.20
2017-06-22T00:07:47.250Z,81.30
2017-06-22T00:10:14.703Z,81.50
2017-06-22T00:12:42.159Z,81.20
2017-06-22T00:15:09.614Z,82.00
2017-06-22T00:17:37.071Z,82.60
2017-06-22T00:20:04.527Z,82.30
2017-06-22T00:22:31.984Z,82.20
2017-06-22T00:24:59.442Z,84.00
2017-06-22T00:27:26.895Z,84.30
2017-06-22T00:29:54.355Z,83.80
2017-06-22T00:32:21.806Z,83.90
2017-06-22T00:34:49.267Z,84.40
2017-06-22T00:37:16.718Z,83.20
2017-06-22T00:39:44.480Z,84.60
2017-06-22T00:42:11.933Z,83.80
2017-06-22T00:44:39.379Z,84.80
2017-06-22T00:47:07.163Z,85.00
2017-06-22T00:49:34.619Z,84.60
2017-06-22T00:52:02.075Z,85.00
2017-06-22T00:54:29.531Z,84.90
2017-06-22T00:56:56.986Z,84.70
2017-06-22T00:59:24.443Z,84.00
2017-06-22T01:01:51.900Z,84.20
2017-06-22T01:04:19.354Z,83.30
2017-06-22T01:06:46.814Z,83.90
2017-06-22T01:09:14.270Z,83.80
2017-06-22T01:11:41.722Z,83.30
2017-06-22T01:14:09.179Z,82.50
2017-06-22T01:16:36.635Z,82.30
2017-06-22T01:19:04.090Z,82.20
2017-06-22T01:21:31.555Z,82.40
2017-06-22T01:23:59.028Z,82.80
2017-06-22T01:26:26.461Z,83.70
2017-06-22T01:28:53.915Z,83.80
2017-06-22T01:31:21.371Z,84.20
2017-06-22T01:33:48.827Z,84.20
2017-06-22T01:36:16.287Z,84.30
2017-06-22T01:38:43.743Z,84.40
2017-06-22T01:41:11.201Z,84.30
2017-06-22T01:43:38.655Z,84.50
2017-06-22T01:46:06.111Z,84.20
2017-06-22T01:48:33.586Z,83.70
2017-06-22T01:51:01.026Z,82.70
2017-06-22T01:53:28.482Z,83.10
2017-06-22T01:55:55.934Z,83.80
2017-06-22T01:58:23.392Z,83.20
2017-06-22T02:00:50.847Z,83.80
2017-06-22T02:03:18.299Z,85.60
2017-06-22T02:05:45.761Z,85.90
2017-06-22T02:08:13.214Z,86.00
2017-06-22T02:10:40.978Z,86.50
2017-06-22T02:13:08.435Z,86.60
2017-06-22T02:15:35.892Z,86.60
2017-06-22T02:18:03.351Z,86.20
2017-06-22T02:20:30.807Z,86.20
2017-06-22T02:22:58.262Z,87.10
2017-06-22T02:25:25.734Z,86.90
2017-06-22T02:27:53.179Z,86.40
2017-06-22T02:30:20.631Z,85.90
2017-06-22T02:32:48.087Z,85.80
2017-06-22T02:35:15.548Z,86.20
2017-06-22T02:37:42.999Z,87.30
2017-06-22T02:40:10.455Z,87.20
2017-06-22T02:42:37.910Z,87.80
2017-06-22T02:45:05.367Z,87.80
2017-06-22T02:47:32.827Z,87.90
2017-06-22T02:50:00.279Z,88.70
2017-06-22T02:52:27.734Z,89.70
2017-06-22T02:54:55.451Z,90.00
2017-06-22T02:57:22.893Z,89.40
2017-06-22T02:59:50.350Z,88.90
2017-06-22T03:02:17.795Z,88.50
2017-06-22T03:04:45.251Z,88.50
2017-06-22T03:07:12.698Z,88.60
2017-06-22T03:09:40.159Z,88.60
2017-06-22T03:12:07.603Z,88.40
2017-06-22T03:14:35.063Z,88.20
2017-06-22T03:17:02.512Z,88.20
2017-06-22T03:19:29.967Z,88.20
2017-06-22T03:21:57.415Z,88.60
2017-06-22T03:24:24.872Z,88.40
2017-06-22T03:26:52.327Z,87.70
2017-06-22T03:29:19.786Z,87.70
2017-06-22T03:31:47.240Z,87.50
2017-06-22T03:34:14.695Z,87.50
2017-06-22T03:36:42.155Z,87.20
2017-06-22T03:39:09.612Z,87.30
2017-06-22T03:41:37.066Z,86.70
2017-06-22T03:44:04.523Z,86.90
2017-06-22T03:46:31.978Z,87.30
2017-06-22T03:48:59.438Z,87.10
2017-06-22T03:51:26.892Z,87.10
2017-06-22T03:53:54.367Z,86.60
2017-06-22T03:56:21.828Z,86.80
2017-06-22T03:58:49.274Z,87.00
2017-06-22T04:01:16.723Z,86.60
2017-06-22T04:03:44.180Z,86.80
2017-06-22T04:06:11.631Z,86.60
2017-06-22T04:08:39.083Z,86.60
2017-06-22T04:11:06.539Z,86.50
2017-06-22T04:13:34.001Z,87.30
2017-06-22T04:16:01.455Z,87.20
2017-06-22T04:18:28.907Z,87.80
2017-06-22T04:20:56.363Z,87.70
2017-06-22T04:23:23.823Z,86.90
2017-06-22T04:25:51.279Z,86.70
2017-06-22T04:28:18.734Z,86.40
2017-06-22T04:30:46.191Z,85.80
2017-06-22T04:33:13.651Z,84.30
2017-06-22T04:35:41.103Z,81.70
2017-06-22T04:38:08.558Z,79.90
2017-06-22T04:40:36.020Z,77.80
2017-06-22T04:43:03.476Z,76.00
2017-06-22T04:45:30.932Z,74.10
2017-06-22T04:47:58.395Z,72.50
2017-06-22T04:50:25.847Z,70.80
2017-06-22T04:52:53.305Z,68.70
2017-06-22T04:55:20.763Z,67.30
2017-06-22T04:57:48.248Z,66.00
2017-06-22T05:00:15.703Z,64.50
2017-06-22T05:02:43.160Z,63.40
2017-06-22T05:05:10.611Z,62.60
2017-06-22T05:07:38.067Z,61.20
2017-06-22T05:10:05.515Z,60.10
2017-06-22T05:12:32.995Z,60.30
2017-06-22T05:15:00.443Z,60.20
2017-06-22T05:17:27.895Z,58.10
2017-06-22T05:19:55.351Z,56.30
2017-06-22T05:22:22.798Z,54.80
2017-06-22T05:24:50.264Z,53.50
2017-06-22T05:27:17.711Z,52.40
2017-06-22T05:29:45.176Z,51.40
2017-06-22T05:32:12.631Z,49.90
2017-06-22T05:34:40.099Z,49.60
2017-06-22T05:37:07.548Z,49.30
2017-06-22T05:39:35.023Z,48.20
2017-06-22T05:42:03.238Z,45.20
2017-06-22T05:44:30.695Z,45.20
2017-06-22T05:46:58.154Z,44.20
2017-06-22T05:49:25.606Z,42.90
2017-06-22T05:51:53.063Z,41.40
2017-06-22T05:54:20.523Z,42.10
2017-06-22T05:56:47.978Z,42.00
2017-06-22T05:59:15.433Z,42.10
2017-06-22T06:01:42.903Z,43.80
2017-06-22T06:04:10.348Z,44.10
2017-06-22T06:06:37.799Z,42.80
2017-06-22T06:09:05.259Z,41.10
2017-06-22T06:11:32.727Z,38.90
2017-06-22T06:14:00.167Z,37.10
2017-06-22T06:16:27.626Z,34.00
2017-06-22T06:18:55.082Z,34.40
2017-06-22T06:21:22.539Z,35.10
2017-06-22T06:23:49.997Z,38.00
2017-06-22T06:26:17.451Z,35.10
2017-06-22T06:28:44.920Z,35.80
2017-06-22T06:31:12.369Z,34.10
2017-06-22T06:33:39.818Z,32.50
2017-06-22T06:36:07.276Z,31.50
2017-06-22T06:38:34.724Z,36.90
2017-06-22T06:41:02.183Z,42.80
2017-06-22T06:43:29.623Z,37.50
2017-06-22T06:45:57.077Z,35.00
2017-06-22T06:48:24.522Z,33.10
2017-06-22T06:50:52.219Z,31.20
2017-06-22T06:53:19.659Z,30.90
2017-06-22T06:55:47.110Z,33.40
2017-06-22T06:58:14.551Z,32.20
2017-06-22T07:00:42.026Z,31.40
2017-06-22T07:03:09.476Z,32.80
2017-06-22T07:05:36.929Z,32.50
2017-06-22T07:08:04.383Z,31.90
2017-06-22T07:10:31.832Z,31.80
2017-06-22T07:13:00.055Z,32.00
2017-06-22T07:15:27.499Z,32.00
2017-06-22T07:17:54.966Z,32.90
2017-06-22T07:20:22.415Z,32.40
2017-06-22T07:22:49.868Z,30.70
2017-06-22T07:25:17.324Z,30.70
2017-06-22T07:27:44.782Z,29.70
2017-06-22T07:30:12.239Z,30.40
2017-06-22T07:32:39.696Z,30.80
2017-06-22T07:35:07.143Z,30.20
2017-06-22T07:37:34.603Z,29.90
2017-06-22T07:40:02.059Z,29.20
2017-06-22T07:42:29.501Z,32.00
2017-06-22T07:44:56.951Z,31.50
2017-06-22T07:47:24.390Z,31.80
2017-06-22T07:49:52.604Z,28.40
2017-06-22T07:52:20.043Z,28.40
2017-06-22T07:54:47.492Z,27.90
2017-06-22T07:57:14.940Z,28.60
2017-06-22T07:59:42.404Z,31.50
2017-06-22T08:02:09.846Z,33.30
2017-06-22T08:04:37.294Z,34.20
2017-06-22T08:07:05.516Z,32.90
2017-06-22T08:09:32.966Z,32.90
2017-06-22T08:12:00.423Z,36.50
2017-06-22T08:14:27.876Z,35.20
2017-06-22T08:16:55.323Z,33.80
2017-06-22T08:19:22.795Z,37.30
2017-06-22T08:21:50.251Z,39.40
2017-06-22T08:24:17.707Z,36.80
2017-06-22T08:26:45.163Z,38.30
2017-06-22T08:29:12.619Z,38.50
2017-06-22T08:31:40.075Z,36.10
2017-06-22T08:34:07.531Z,33.80
2017-06-22T08:36:34.987Z,32.90
2017-06-22T08:39:02.447Z,33.80
2017-06-22T08:41:29.899Z,33.30
2017-06-22T08:43:57.354Z,31.60
2017-06-22T08:46:24.819Z,34.30
2017-06-22T08:48:52.272Z,37.20
2017-06-22T08:51:19.784Z,36.60
2017-06-22T08:53:48.002Z,35.60
2017-06-22T08:56:15.458Z,35.50
2017-06-22T08:58:42.911Z,31.90
2017-06-22T09:01:10.360Z,30.80
2017-06-22T09:03:37.809Z,30.60
2017-06-22T09:06:05.259Z,32.10
2017-06-22T09:08:32.710Z,32.40
2017-06-22T09:11:00.162Z,33.60
2017-06-22T09:13:27.609Z,35.60
2017-06-22T09:15:55.059Z,34.90
2017-06-22T09:18:23.283Z,36.90
2017-06-22T09:20:50.739Z,36.30
2017-06-22T09:23:18.191Z,34.50
2017-06-22T09:25:45.651Z,34.20
2017-06-22T09:28:13.104Z,35.20
2017-06-22T09:30:40.561Z,35.80
2017-06-22T09:33:08.020Z,34.10
2017-06-22T09:35:35.475Z,33.20
2017-06-22T09:38:02.932Z,32.20
2017-06-22T09:40:30.387Z,33.30
2017-06-22T09:42:57.843Z,33.90
2017-06-22T09:45:25.300Z,33.50
2017-06-22T09:47:52.755Z,32.20
2017-06-22T09:50:20.195Z,30.10
2017-06-22T09:52:47.650Z,30.70
2017-06-22T09:55:15.100Z,32.40
2017-06-22T09:57:42.580Z,33.00
2017-06-22T10:00:10.035Z,31.00
2017-06-22T10:02:37.491Z,30.00
2017-06-22T10:05:04.947Z,29.60
2017-06-22T10:07:32.408Z,30.70
2017-06-22T10:09:59.862Z,32.40
2017-06-22T10:12:27.323Z,29.50
2017-06-22T10:14:54.772Z,29.60
2017-06-22T10:17:22.222Z,28.40
2017-06-22T10:19:49.689Z,30.50
2017-06-22T10:22:17.128Z,31.10
2017-06-22T10:24:44.572Z,29.90
2017-06-22T10:27:12.019Z,28.40
2017-06-22T10:29:39.460Z,27.60
2017-06-22T10:32:06.912Z,27.40
2017-06-22T10:34:34.347Z,27.70
2017-06-22T10:37:01.795Z,28.80
2017-06-22T10:39:29.231Z,28.20
2017-06-22T10:41:56.691Z,28.70
2017-06-22T10:44:24.223Z,27.80
2017-06-22T10:46:52.011Z,27.90
2017-06-22T10:49:19.460Z,27.50
2017-06-22T10:51:46.894Z,29.00
2017-06-22T10:54:14.342Z,29.20
2017-06-22T10:56:42.555Z,26.70
2017-06-22T10:59:10.007Z,26.50
2017-06-22T11:01:37.457Z,26.60
2017-06-22T11:04:04.906Z,25.00
2017-06-22T11:06:32.356Z,23.40
2017-06-22T11:08:59.804Z,23.80
2017-06-22T11:11:27.248Z,23.50
2017-06-22T11:13:55.476Z,24.80
2017-06-22T11:16:22.919Z,24.80
2017-06-22T11:18:50.372Z,24.50
2017-06-22T11:21:17.825Z,24.90
2017-06-22T11:23:45.259Z,23.50
2017-06-22T11:26:12.714Z,23.00
2017-06-22T11:28:40.915Z,24.00
2017-06-22T11:31:08.371Z,23.90
2017-06-22T11:33:35.815Z,23.20
2017-06-22T11:36:03.263Z,23.60
2017-06-22T11:38:30.707Z,25.10
2017-06-22T11:40:58.940Z,24.20
2017-06-22T11:43:26.383Z,24.10
2017-06-22T11:45:53.827Z,24.40
2017-06-22T11:48:21.283Z,24.30
2017-06-22T11:50:48.735Z,25.20
2017-06-22T11:53:16.176Z,24.00
2017-06-22T11:55:43.619Z,23.30
2017-06-22T11:58:11.835Z,23.30
2017-06-22T12:00:39.283Z,23.30
2017-06-22T12:03:06.751Z,24.10
2017-06-22T12:05:34.195Z,24.00
2017-06-22T12:08:01.651Z,23.20
2017-06-22T12:10:29.107Z,25.40
2017-06-22T12:12:56.563Z,24.40
2017-06-22T12:15:24.022Z,25.30
2017-06-22T12:17:51.473Z,24.70
2017-06-22T12:20:18.919Z,24.50
2017-06-22T12:22:46.372Z,24.30
2017-06-22T12:25:13.824Z,24.50
2017-06-22T12:27:41.268Z,24.30
2017-06-22T12:30:08.735Z,25.50
2017-06-22T12:32:36.172Z,24.80
2017-06-22T12:35:04.388Z,24.70
2017-06-22T12:37:31.843Z,24.60
2017-06-22T12:39:59.299Z,24.20
2017-06-22T12:42:26.755Z,25.00
2017-06-22T12:44:54.211Z,24.80
2017-06-22T12:47:21.667Z,24.60
2017-06-22T12:49:49.124Z,24.60
2017-06-22T12:52:16.566Z,24.10
2017-06-22T12:54:45.575Z,23.20
2017-06-22T12:57:13.032Z,23.00
2017-06-22T12:59:40.475Z,24.10
2017-06-22T13:02:07.934Z,24.80
2017-06-22T13:04:35.387Z,24.30
2017-06-22T13:07:02.843Z,24.10
2017-06-22T13:09:30.303Z,25.70
2017-06-22T13:11:57.748Z,26.00
2017-06-22T13:14:25.191Z,26.30
2017-06-22T13:16:52.635Z,26.30
2017-06-22T13:19:20.078Z,23.90
2017-06-22T13:21:48.307Z,23.30
2017-06-22T13:24:15.758Z,23.30
2017-06-22T13:26:43.211Z,23.90
2017-06-22T13:29:10.667Z,24.80
2017-06-22T13:31:38.106Z,24.60
2017-06-22T13:34:05.546Z,25.10
2017-06-22T13:36:32.995Z,26.40
2017-06-22T13:39:01.211Z,28.30
2017-06-22T13:41:28.662Z,28.20
2017-06-22T13:43:56.232Z,27.50
2017-06-22T13:46:23.682Z,27.80
2017-06-22T13:51:18.595Z,28.00
2017-06-22T13:53:46.048Z,26.60
2017-06-22T13:56:13.503Z,27.20
2017-06-22T13:58:40.963Z,26.80
2017-06-22T14:01:08.435Z,27.90
2017-06-22T14:03:35.874Z,27.50
2017-06-22T14:06:03.327Z,28.20
2017-06-22T14:08:30.787Z,27.80
2017-06-22T14:10:58.226Z,28.00
2017-06-22T14:13:25.683Z,28.50
2017-06-22T14:15:53.123Z,29.50
2017-06-22T14:18:20.571Z,29.00
2017-06-22T14:20:48.787Z,30.70
2017-06-22T14:23:16.239Z,30.60
2017-06-22T14:25:43.706Z,29.40
2017-06-22T14:28:11.155Z,30.10
2017-06-22T14:30:38.608Z,30.90
2017-06-22T14:33:06.082Z,30.60
2017-06-22T14:35:33.535Z,30.70
2017-06-22T14:38:00.978Z,31.10
2017-06-22T14:40:28.436Z,31.90
2017-06-22T14:42:55.889Z,32.20
2017-06-22T14:45:23.351Z,31.10
2017-06-22T14:47:50.807Z,31.70
2017-06-22T14:50:18.259Z,32.80
2017-06-22T14:52:45.719Z,33.50
2017-06-22T14:55:13.171Z,32.50
2017-06-22T14:57:40.627Z,32.70
2017-06-22T15:00:08.099Z,32.20
2017-06-22T15:02:35.543Z,32.80
2017-06-22T15:05:02.996Z,32.20
2017-06-22T15:07:30.452Z,32.40
2017-06-22T15:09:57.901Z,33.50
2017-06-22T15:12:25.368Z,34.20
2017-06-22T15:14:52.822Z,32.40
2017-06-22T15:17:20.280Z,32.70
2017-06-22T15:19:47.734Z,33.30
2017-06-22T15:22:15.191Z,32.50
2017-06-22T15:24:42.646Z,34.30
2017-06-22T15:27:10.113Z,33.00
2017-06-22T15:29:37.559Z,34.80
2017-06-22T15:32:05.016Z,33.30
2017-06-22T15:34:32.491Z,32.10
2017-06-22T15:36:59.943Z,34.30
2017-06-22T15:39:27.387Z,32.30
2017-06-22T15:41:54.839Z,32.70
2017-06-22T15:44:22.293Z,34.50
2017-06-22T15:46:49.751Z,33.90
2017-06-22T15:49:17.207Z,35.10
2017-06-22T15:51:44.667Z,34.30
2017-06-22T15:54:12.114Z,37.50
2017-06-22T15:56:39.564Z,38.10
2017-06-22T15:59:07.006Z,37.80
2017-06-22T16:01:34.463Z,37.40
2017-06-22T16:04:01.912Z,36.50
2017-06-22T16:06:29.359Z,35.50
2017-06-22T16:08:57.580Z,36.90
2017-06-22T16:11:25.038Z,37.10
2017-06-22T16:13:52.500Z,35.60
2017-06-22T16:16:19.951Z,36.10
2017-06-22T16:18:47.399Z,36.00
2017-06-22T16:21:14.854Z,34.30
2017-06-22T16:23:42.372Z,34.30
2017-06-22T16:26:10.591Z,36.50
2017-06-22T16:28:38.052Z,35.90
2017-06-22T16:31:05.506Z,36.40
2017-06-22T16:33:32.959Z,35.50
2017-06-22T16:36:00.415Z,37.20
2017-06-22T16:38:27.866Z,36.90
2017-06-22T16:40:55.323Z,36.60
2017-06-22T16:43:22.763Z,36.70
2017-06-22T16:45:50.223Z,37.00
2017-06-22T16:48:17.680Z,36.40
2017-06-22T16:50:45.132Z,36.10
2017-06-22T16:53:12.583Z,36.60
2017-06-22T16:55:40.047Z,38.60
2017-06-22T16:58:07.497Z,40.80
2017-06-22T17:00:34.951Z,40.30
2017-06-22T17:03:02.399Z,40.30
2017-06-22T17:05:30.627Z,41.50
2017-06-22T17:07:58.079Z,41.50
2017-06-22T17:10:25.605Z,42.20
2017-06-22T17:12:53.047Z,42.60
2017-06-22T17:15:20.533Z,43.40
2017-06-22T17:17:47.995Z,43.30
2017-06-22T17:20:15.451Z,44.10
2017-06-22T17:22:42.908Z,43.30
2017-06-22T17:25:10.367Z,44.20
2017-06-22T17:27:37.931Z,43.20
2017-06-22T17:30:05.379Z,41.20
2017-06-22T17:32:32.840Z,40.80
2017-06-22T17:35:00.290Z,41.80
2017-06-22T17:37:27.747Z,40.30
2017-06-22T17:39:55.203Z,41.20
2017-06-22T17:42:22.659Z,41.40
2017-06-22T17:44:50.116Z,41.30
2017-06-22T17:47:17.576Z,41.10
2017-06-22T17:49:45.027Z,41.60
2017-06-22T17:52:12.483Z,41.60
2017-06-22T17:54:39.939Z,41.20
2017-06-22T17:57:07.400Z,41.40
2017-06-22T17:59:34.850Z,41.90
2017-06-22T18:02:02.305Z,41.70
2017-06-22T18:04:29.763Z,41.90
2017-06-22T18:06:57.227Z,42.70
2017-06-22T18:09:24.683Z,42.80
2017-06-22T18:11:52.140Z,43.40
2017-06-22T18:14:19.611Z,42.90
2017-06-22T18:16:47.071Z,42.70
2017-06-22T18:19:14.528Z,42.70
2017-06-22T18:21:41.995Z,42.50
2017-06-22T18:24:09.447Z,41.90
2017-06-22T18:26:36.913Z,42.10
2017-06-22T18:29:04.363Z,42.20
2017-06-22T18:31:31.811Z,45.60
2017-06-22T18:33:59.254Z,47.80
2017-06-22T18:36:26.711Z,48.20
2017-06-22T18:38:54.931Z,44.60
2017-06-22T18:41:22.403Z,44.50
2017-06-22T18:43:49.859Z,48.10
2017-06-22T18:46:17.306Z,49.60
2017-06-22T18:48:44.767Z,52.50
2017-06-22T18:51:12.223Z,55.30
2017-06-22T18:53:39.680Z,54.70
2017-06-22T18:56:07.131Z,55.60
2017-06-22T18:58:34.603Z,56.20
2017-06-22T19:01:02.051Z,53.70
2017-06-22T19:03:29.503Z,53.20
2017-06-22T19:05:56.948Z,53.40
2017-06-22T19:08:24.447Z,54.20
2017-06-22T19:10:51.897Z,54.30
2017-06-22T19:13:19.366Z,51.90
2017-06-22T19:15:46.807Z,53.80
2017-06-22T19:18:14.247Z,54.40
2017-06-22T19:20:41.702Z,55.40
2017-06-22T19:23:09.159Z,56.10
2017-06-22T19:25:36.616Z,56.50
2017-06-22T19:28:04.107Z,57.00
2017-06-22T19:30:31.574Z,57.20
2017-06-22T19:32:59.176Z,56.40
2017-06-22T19:35:26.729Z,55.30
2017-06-22T19:37:54.945Z,54.20
2017-06-22T19:40:22.397Z,54.10
2017-06-22T19:42:49.856Z,56.00
2017-06-22T19:45:17.332Z,56.30
2017-06-22T19:47:44.783Z,55.40
2017-06-22T19:50:12.278Z,57.50
2017-06-22T19:52:40.512Z,59.90
2017-06-22T19:55:07.978Z,59.80
2017-06-22T19:57:35.451Z,60.90
2017-06-22T20:00:02.906Z,61.40
2017-06-22T20:02:30.360Z,62.10
2017-06-22T20:04:57.817Z,61.20
2017-06-22T20:07:25.282Z,60.60
2017-06-22T20:09:52.728Z,61.30
2017-06-22T20:12:20.186Z,60.80
2017-06-22T20:14:47.633Z,60.60
2017-06-22T20:17:15.088Z,60.70
2017-06-22T20:19:42.547Z,58.40
2017-06-22T20:22:09.998Z,59.10
2017-06-22T20:24:37.455Z,61.40
2017-06-22T20:27:04.916Z,60.60
2017-06-22T20:29:32.368Z,60.10
2017-06-22T20:31:59.836Z,60.10
2017-06-22T20:34:27.287Z,59.80
2017-06-22T20:36:54.739Z,59.70
2017-06-22T20:39:22.196Z,59.00
2017-06-22T20:41:49.651Z,58.30
2017-06-22T20:44:17.120Z,53.80
2017-06-22T20:46:44.564Z,54.70
2017-06-22T20:49:12.019Z,52.90
2017-06-22T20:51:39.463Z,51.40
2017-06-22T20:54:06.935Z,50.90
2017-06-22T20:56:34.387Z,50.70
2017-06-22T20:59:02.368Z,49.80
2017-06-22T21:01:29.815Z,48.50
2017-06-22T21:03:57.283Z,47.60
2017-06-22T21:06:25.509Z,47.20
2017-06-22T21:08:53.375Z,47.20
2017-06-22T21:11:20.829Z,47.10
2017-06-22T21:13:48.285Z,47.50
2017-06-22T21:16:15.739Z,47.20
2017-06-22T21:18:43.194Z,46.50
2017-06-22T21:21:10.651Z,46.60
2017-06-22T21:23:38.250Z,46.90
2017-06-22T21:26:05.703Z,46.90
2017-06-22T21:28:33.163Z,46.90
2017-06-22T21:31:00.623Z,47.60
2017-06-22T21:33:28.070Z,47.60
2017-06-22T21:35:55.522Z,47.70
2017-06-22T21:38:22.967Z,48.20
2017-06-22T21:40:50.435Z,48.40
2017-06-22T21:43:17.875Z,48.50
2017-06-22T21:45:45.330Z,48.20
2017-06-22T21:48:12.790Z,48.20
2017-06-22T21:50:40.243Z,48.50
2017-06-22T21:53:07.702Z,48.60
2017-06-22T21:55:35.155Z,48.70
2017-06-22T21:58:02.611Z,48.60
2017-06-22T22:00:30.055Z,49.20
2017-06-22T22:02:57.513Z,49.40
2017-06-22T22:05:24.967Z,49.40
2017-06-22T22:07:52.424Z,49.70
2017-06-22T22:10:19.878Z,49.60
2017-06-22T22:12:47.335Z,49.80
2017-06-22T22:15:14.795Z,49.80
2017-06-22T22:17:42.275Z,50.60
2017-06-22T22:20:09.719Z,50.60
2017-06-22T22:22:37.163Z,51.20
2017-06-22T22:25:04.619Z,51.20
2017-06-22T22:27:32.075Z,51.20
2017-06-22T22:29:59.530Z,51.50
2017-06-22T22:32:26.986Z,52.90
2017-06-22T22:34:54.443Z,53.40
2017-06-22T22:37:21.899Z,54.00
2017-06-22T22:39:49.355Z,53.90
2017-06-22T22:42:16.814Z,54.10
2017-06-22T22:44:44.270Z,54.30
2017-06-22T22:47:11.723Z,54.60
2017-06-22T22:49:39.179Z,55.30
2017-06-22T22:52:06.640Z,55.00
2017-06-22T22:54:34.090Z,54.60
2017-06-22T22:57:01.552Z,54.50
2017-06-22T22:59:29.007Z,55.30
2017-06-22T23:01:56.464Z,55.70
2017-06-22T23:04:23.919Z,55.20
2017-06-22T23:06:51.374Z,55.00
2017-06-22T23:09:18.830Z,56.00
2017-06-22T23:11:46.287Z,56.60
2017-06-22T23:14:13.742Z,55.80
2017-06-22T23:16:41.198Z,55.70
2017-06-22T23:19:08.659Z,55.30
2017-06-22T23:21:36.135Z,55.30
2017-06-22T23:24:03.582Z,54.60
2017-06-22T23:26:31.031Z,54.50
2017-06-22T23:28:58.482Z,53.70
2017-06-22T23:31:25.938Z,53.70
2017-06-22T23:33:53.395Z,54.50
2017-06-22T23:36:20.850Z,55.00
2017-06-22T23:38:48.306Z,54.30
2017-06-22T23:41:15.763Z,54.30
2017-06-22T23:43:43.219Z,54.70
2017-06-22T23:46:10.660Z,54.40
2017-06-22T23:48:38.107Z,52.70
2017-06-22T23:51:05.551Z,53.00
2017-06-22T23:53:33.771Z,52.40
2017-06-22T23:56:01.214Z,52.40
2017-06-22T23:58:28.658Z,52.20
